aviador You're here:

UKDE Decoded Metar

MOKRAYA in UKRAINE
Report Time2017-09-20 12:30:00
UTC Time2017-09-20 13:00:52
Flight Rules vfr VFR
Wind100° at 14 kt
W.Decomp.*RWY 02: 3.4 kt HW 13.6 kt RCW
W.Rank100° ranks 18
Current wind is above 100° avg. (6.7)
Visibility9999 m
Phenomena:N/A
Clouds:N/A
Expected CloudBase > 9,600 ft AGL from Temp-Dew spread
CeilingNone
Temp34°C (ISA +20)
Dew Point10°C (23% RH)
Heat Index32.3°C
AAT29.0°C
QNH1011 hPa
Density Alt2,848 ft
Elevation371 ft
Report Wrong Elevation
Raw Report
UKDE 201230Z 10007MPS 060V130 CAVOK 34/10 Q1011 R02/CLRD70 TEMPO
11009G14MPS=

Extra information for UKDE:More info

Metar Taf Metar & Taf Last 4 Metars F.Rules Stats Wind Profile Meteogram Temp Stats Airport Information Weather charts Add Link Nearby VenuesMetar ALERT Operation Metar Decoded Social comments